createdAt,value
2019-04-20T00:01:32.653Z,12.30
2019-04-20T00:04:01.033Z,12.50
2019-04-20T00:06:31.670Z,12.60
2019-04-20T00:09:09.694Z,12.60
2019-04-20T00:11:41.018Z,12.70
2019-04-20T00:14:07.160Z,12.70
2019-04-20T00:16:33.705Z,12.60
2019-04-20T00:19:04.076Z,12.60
2019-04-20T00:21:43.117Z,12.70
2019-04-20T00:24:15.731Z,12.50
2019-04-20T00:29:29.476Z,12.30
2019-04-20T00:31:55.464Z,11.70
2019-04-20T00:34:18.446Z,11.70
2019-04-20T00:36:41.457Z,11.70
2019-04-20T00:39:13.217Z,11.70
2019-04-20T00:41:48.027Z,11.60
2019-04-20T00:44:17.376Z,11.60
2019-04-20T00:46:58.544Z,11.50
2019-04-20T00:49:27.274Z,11.60
2019-04-20T00:52:07.636Z,11.70
2019-04-20T00:54:13.592Z,11.60
2019-04-20T00:56:43.406Z,11.30
2019-04-20T00:59:26.030Z,11.00
2019-04-20T01:02:00.586Z,10.80
2019-04-20T01:04:29.967Z,10.90
2019-04-20T01:07:06.212Z,10.60
2019-04-20T01:09:28.949Z,10.50
2019-04-20T01:11:58.583Z,10.40
2019-04-20T01:14:37.872Z,10.40
2019-04-20T01:17:05.685Z,10.50
2019-04-20T01:19:27.982Z,10.60
2019-04-20T01:22:03.642Z,10.60
2019-04-20T01:24:33.067Z,10.50
2019-04-20T01:27:00.833Z,10.40
2019-04-20T01:29:36.621Z,10.40
2019-04-20T01:32:10.436Z,10.00
2019-04-20T01:34:42.741Z,10.10
2019-04-20T01:37:18.134Z,10.20
2019-04-20T01:39:37.208Z,10.10
2019-04-20T01:42:04.455Z,10.20
2019-04-20T01:44:38.523Z,10.30
2019-04-20T01:47:06.515Z,9.60
2019-04-20T01:49:36.798Z,9.40
2019-04-20T01:52:12.993Z,9.40
2019-04-20T01:54:56.685Z,9.50
2019-04-20T01:57:33.132Z,9.60
2019-04-20T02:00:06.056Z,9.70
2019-04-20T02:02:34.314Z,9.70
2019-04-20T02:05:09.978Z,9.50
2019-04-20T02:07:37.530Z,9.60
2019-04-20T02:10:05.279Z,9.80
2019-04-20T02:12:35.665Z,9.80
2019-04-20T02:15:04.797Z,9.80
2019-04-20T02:17:40.747Z,9.80
2019-04-20T02:20:23.368Z,9.60
2019-04-20T02:22:51.839Z,9.60
2019-04-20T02:25:05.842Z,9.20
2019-04-20T02:27:45.417Z,8.90
2019-04-20T02:30:48.200Z,9.00
2019-04-20T02:33:27.467Z,9.20
2019-04-20T02:36:08.748Z,9.30
2019-04-20T02:38:46.570Z,9.40
2019-04-20T02:43:46.790Z,9.40
2019-04-20T02:45:57.775Z,9.50
2019-04-20T02:48:35.965Z,9.20
2019-04-20T02:51:06.258Z,9.10
2019-04-20T02:53:41.551Z,9.10
2019-04-20T02:58:45.004Z,8.90
2019-04-20T03:01:11.928Z,8.30
2019-04-20T03:03:30.691Z,8.10
2019-04-20T03:06:05.240Z,8.10
2019-04-20T03:08:40.608Z,8.20
2019-04-20T03:11:19.166Z,8.10
2019-04-20T03:13:45.620Z,8.20
2019-04-20T03:16:14.963Z,8.30
2019-04-20T03:18:41.516Z,8.40
2019-04-20T03:21:21.458Z,8.50
2019-04-20T03:23:54.190Z,8.50
2019-04-20T03:26:21.447Z,8.60
2019-04-20T03:28:50.256Z,8.50
2019-04-20T03:32:14.631Z,8.50
2019-04-20T03:36:57.181Z,8.40
2019-04-20T03:39:13.874Z,8.40
2019-04-20T03:41:34.507Z,8.40
2019-04-20T03:44:03.676Z,8.30
2019-04-20T03:46:36.691Z,8.20
2019-04-20T03:49:14.632Z,8.00
2019-04-20T03:51:53.440Z,7.90
2019-04-20T03:54:30.795Z,7.20
2019-04-20T03:57:29.320Z,7.10
2019-04-20T04:00:00.450Z,7.20
2019-04-20T04:03:05.636Z,7.00
2019-04-20T04:05:27.484Z,7.00
2019-04-20T04:07:46.782Z,7.20
2019-04-20T04:10:25.918Z,7.20
2019-04-20T04:13:05.134Z,7.30
2019-04-20T04:15:37.049Z,7.50
2019-04-20T04:18:17.143Z,7.50
2019-04-20T04:20:47.850Z,7.50
2019-04-20T04:23:31.139Z,7.60
2019-04-20T04:25:59.204Z,7.60
2019-04-20T04:28:28.610Z,7.40
2019-04-20T04:31:04.078Z,7.30
2019-04-20T04:36:03.110Z,7.50
2019-04-20T04:38:37.771Z,7.50
2019-04-20T04:41:16.977Z,7.60
2019-04-20T04:43:38.957Z,7.30
2019-04-20T04:45:48.896Z,7.20
2019-04-20T04:48:25.218Z,7.40
2019-04-20T04:50:56.099Z,7.60
2019-04-20T04:53:29.847Z,7.60
2019-04-20T04:55:56.461Z,7.40
2019-04-20T04:58:19.550Z,7.30
2019-04-20T05:00:49.347Z,7.50
2019-04-20T05:03:37.581Z,8.30
2019-04-20T05:06:13.659Z,9.50
2019-04-20T05:08:31.599Z,10.90
2019-04-20T05:10:56.228Z,12.00
2019-04-20T05:13:35.650Z,13.00
2019-04-20T05:16:07.589Z,14.20
2019-04-20T05:18:51.161Z,15.60
2019-04-20T05:21:21.936Z,16.40
2019-04-20T05:23:41.371Z,17.00
2019-04-20T05:26:36.323Z,16.20
2019-04-20T05:28:58.999Z,17.50
2019-04-20T05:31:24.465Z,18.00
2019-04-20T05:34:14.438Z,19.60
2019-04-20T05:36:44.857Z,20.70
2019-04-20T05:39:29.560Z,21.70
2019-04-20T05:41:53.213Z,21.90
2019-04-20T05:44:24.784Z,22.90
2019-04-20T05:47:02.862Z,23.80
2019-04-20T05:49:31.766Z,24.10
2019-04-20T05:52:10.423Z,25.20
2019-04-20T05:54:40.351Z,25.40
2019-04-20T05:57:14.446Z,26.50
2019-04-20T05:59:51.361Z,26.90
2019-04-20T06:02:15.974Z,27.40
2019-04-20T06:05:00.375Z,27.60
2019-04-20T06:07:27.078Z,27.90
2019-04-20T06:10:22.033Z,28.20
2019-04-20T06:12:53.150Z,28.40
2019-04-20T06:15:40.739Z,29.30
2019-04-20T06:18:06.321Z,29.80
2019-04-20T06:21:15.814Z,30.30
2019-04-20T06:23:42.765Z,29.80
2019-04-20T06:26:20.127Z,28.20
2019-04-20T06:28:36.612Z,26.00
2019-04-20T06:31:14.918Z,25.30
2019-04-20T06:36:46.978Z,27.20
2019-04-20T06:39:32.634Z,25.20
2019-04-20T06:42:31.952Z,23.60
2019-04-20T06:44:50.843Z,23.10
2019-04-20T06:47:24.989Z,21.40
2019-04-20T06:49:51.602Z,18.40
2019-04-20T06:55:02.455Z,18.70
2019-04-20T06:57:45.365Z,20.20
2019-04-20T07:00:36.869Z,19.30
2019-04-20T07:02:48.499Z,20.50
2019-04-20T07:05:27.397Z,21.20
2019-04-20T07:08:15.512Z,20.00
2019-04-20T07:10:38.117Z,20.00
2019-04-20T07:13:00.079Z,20.80
2019-04-20T07:15:46.545Z,20.00
2019-04-20T07:18:29.980Z,20.80
2019-04-20T07:21:12.733Z,20.90
2019-04-20T07:26:06.657Z,19.80
2019-04-20T07:28:41.136Z,20.80
2019-04-20T07:31:02.823Z,21.80
2019-04-20T07:33:44.630Z,24.00
2019-04-20T07:36:04.172Z,25.40
2019-04-20T07:38:41.599Z,25.30
2019-04-20T07:41:21.624Z,22.60
2019-04-20T07:44:01.701Z,24.10
2019-04-20T07:46:37.625Z,24.20
2019-04-20T07:48:55.300Z,25.00
2019-04-20T07:51:16.122Z,26.20
2019-04-20T07:54:19.357Z,26.50
2019-04-20T07:56:37.520Z,25.10
2019-04-20T07:58:52.401Z,23.60
2019-04-20T08:01:58.841Z,23.20
2019-04-20T08:04:27.246Z,23.40
2019-04-20T08:06:54.874Z,22.00
2019-04-20T08:09:29.366Z,20.30
2019-04-20T08:12:21.726Z,21.10
2019-04-20T08:14:56.801Z,21.40
2019-04-20T08:17:44.331Z,22.30
2019-04-20T08:19:50.834Z,22.40
2019-04-20T08:22:27.014Z,23.50
2019-04-20T08:24:55.264Z,24.40
2019-04-20T08:27:14.211Z,24.40
2019-04-20T08:29:57.732Z,23.40
2019-04-20T08:32:47.037Z,22.80
2019-04-20T08:35:25.944Z,23.40
2019-04-20T08:38:21.202Z,23.10
2019-04-20T08:40:33.026Z,23.00
2019-04-20T08:43:11.194Z,22.60
2019-04-20T08:45:51.079Z,22.70
2019-04-20T08:48:25.990Z,23.10
2019-04-20T08:51:00.109Z,23.50
2019-04-20T08:53:28.174Z,22.50
2019-04-20T08:55:51.470Z,22.80
2019-04-20T08:58:07.225Z,22.80
2019-04-20T09:00:46.199Z,23.00
2019-04-20T09:03:17.994Z,24.20
2019-04-20T09:05:59.519Z,24.10
2019-04-20T09:08:24.034Z,23.70
2019-04-20T09:11:05.881Z,23.60
2019-04-20T09:13:37.205Z,23.80
2019-04-20T09:16:04.256Z,23.50
2019-04-20T09:18:49.369Z,24.00
2019-04-20T09:21:32.925Z,25.70
2019-04-20T09:24:21.739Z,26.50
2019-04-20T09:26:57.274Z,26.00
2019-04-20T09:29:21.004Z,26.10
2019-04-20T09:31:52.127Z,26.10
2019-04-20T09:34:37.018Z,26.10
2019-04-20T09:37:21.729Z,24.20
2019-04-20T09:39:43.975Z,24.30
2019-04-20T09:42:14.692Z,25.50
2019-04-20T09:44:48.838Z,25.30
2019-04-20T09:47:26.468Z,25.20
2019-04-20T09:50:00.849Z,25.20
2019-04-20T09:52:38.190Z,24.90
2019-04-20T09:55:06.973Z,24.90
2019-04-20T09:57:37.968Z,24.70
2019-04-20T10:00:05.360Z,24.30
2019-04-20T10:02:27.842Z,24.00
2019-04-20T10:04:53.618Z,24.20
2019-04-20T10:07:31.163Z,23.50
2019-04-20T10:09:59.951Z,23.20
2019-04-20T10:12:29.405Z,23.20
2019-04-20T10:15:06.533Z,23.40
2019-04-20T10:17:31.720Z,23.30
2019-04-20T10:20:09.591Z,23.30
2019-04-20T10:22:33.677Z,23.40
2019-04-20T10:25:02.719Z,23.50
2019-04-20T10:27:32.773Z,23.60
2019-04-20T10:30:04.688Z,23.40
2019-04-20T10:32:40.390Z,23.10
2019-04-20T10:35:11.809Z,23.20
2019-04-20T10:37:45.235Z,23.20
2019-04-20T10:40:22.219Z,23.40
2019-04-20T10:42:45.973Z,23.30
2019-04-20T10:45:17.060Z,23.40
2019-04-20T10:47:45.748Z,23.50
2019-04-20T10:50:14.917Z,23.50
2019-04-20T10:52:47.747Z,23.50
2019-04-20T10:55:18.589Z,23.60
2019-04-20T10:57:47.555Z,23.80
2019-04-20T11:00:17.515Z,24.10
2019-04-20T11:02:48.057Z,24.20
2019-04-20T11:05:22.637Z,24.30
2019-04-20T11:07:54.727Z,24.40
2019-04-20T11:10:28.576Z,24.50
2019-04-20T11:12:54.245Z,24.60
2019-04-20T11:15:24.077Z,24.80
2019-04-20T11:17:53.440Z,24.60
2019-04-20T11:20:23.216Z,24.30
2019-04-20T11:22:58.209Z,24.30
2019-04-20T11:25:28.343Z,24.60
2019-04-20T11:27:58.728Z,25.00
2019-04-20T11:30:32.208Z,24.70
2019-04-20T11:33:02.224Z,25.00
2019-04-20T11:35:36.152Z,24.90
2019-04-20T11:38:02.853Z,24.80
2019-04-20T11:40:32.930Z,24.90
2019-04-20T11:43:01.879Z,25.10
2019-04-20T11:45:33.227Z,24.90
2019-04-20T11:48:03.203Z,24.90
2019-04-20T11:50:37.986Z,25.20
2019-04-20T11:53:06.586Z,25.30
2019-04-20T11:55:36.248Z,25.30
2019-04-20T11:58:05.914Z,25.40
2019-04-20T12:00:46.971Z,25.40
2019-04-20T12:03:23.737Z,25.20
2019-04-20T12:05:52.975Z,25.10
2019-04-20T12:08:16.694Z,25.10
2019-04-20T12:10:50.283Z,25.40
2019-04-20T12:13:16.431Z,25.70
2019-04-20T12:15:45.573Z,25.70
2019-04-20T12:18:15.735Z,25.90
2019-04-20T12:20:44.993Z,25.80
2019-04-20T12:23:14.098Z,26.10
2019-04-20T12:25:44.476Z,26.00
2019-04-20T12:28:13.736Z,25.80
2019-04-20T12:30:43.784Z,25.70
2019-04-20T12:33:13.592Z,25.90
2019-04-20T12:35:44.479Z,25.60
2019-04-20T12:38:14.629Z,25.70
2019-04-20T12:40:44.085Z,25.90
2019-04-20T12:43:13.217Z,25.90
2019-04-20T12:45:42.137Z,25.70
2019-04-20T12:48:11.442Z,25.90
2019-04-20T12:50:41.454Z,25.60
2019-04-20T12:53:13.250Z,25.40
2019-04-20T12:55:46.529Z,25.30
2019-04-20T12:58:16.736Z,25.30
2019-04-20T13:00:49.990Z,25.30
2019-04-20T13:03:19.601Z,25.50
2019-04-20T13:05:50.014Z,25.60
2019-04-20T13:08:28.443Z,25.70
2019-04-20T13:10:55.707Z,25.80
2019-04-20T13:13:30.648Z,25.80
2019-04-20T13:16:10.213Z,25.70
2019-04-20T13:18:43.526Z,25.60
2019-04-20T13:21:19.015Z,25.20
2019-04-20T13:23:48.954Z,25.00
2019-04-20T13:26:19.194Z,25.20
2019-04-20T13:28:48.758Z,25.60
2019-04-20T13:31:17.788Z,25.80
2019-04-20T13:33:47.510Z,26.00
2019-04-20T13:36:16.633Z,26.00
2019-04-20T13:38:45.896Z,25.80
2019-04-20T13:41:15.755Z,25.30
2019-04-20T13:43:45.931Z,25.20
2019-04-20T13:46:16.316Z,25.50
2019-04-20T13:48:51.034Z,25.30
2019-04-20T13:51:20.750Z,25.30
2019-04-20T13:53:53.257Z,25.50
2019-04-20T13:56:23.828Z,25.60
2019-04-20T13:58:58.060Z,25.60
2019-04-20T14:01:28.958Z,25.60
2019-04-20T14:04:05.271Z,25.50
2019-04-20T14:06:35.356Z,25.70
2019-04-20T14:09:07.439Z,25.70
2019-04-20T14:11:36.688Z,25.80
2019-04-20T14:14:08.126Z,25.90
2019-04-20T14:16:36.952Z,26.00
2019-04-20T14:19:07.059Z,26.10
2019-04-20T14:21:36.396Z,25.70
2019-04-20T14:24:08.779Z,25.80
2019-04-20T14:26:40.361Z,25.80
2019-04-20T14:29:12.729Z,25.80
2019-04-20T14:31:42.133Z,25.80
2019-04-20T14:34:15.145Z,25.80
2019-04-20T14:36:44.555Z,25.50
2019-04-20T14:39:20.290Z,25.30
2019-04-20T14:41:54.137Z,25.50
2019-04-20T14:44:27.811Z,25.60
2019-04-20T14:46:57.997Z,25.60
2019-04-20T14:49:30.614Z,25.50
2019-04-20T14:52:01.517Z,25.30
2019-04-20T14:54:39.362Z,25.40
2019-04-20T14:57:10.112Z,25.40
2019-04-20T14:59:41.333Z,25.60
2019-04-20T15:02:12.699Z,25.50
2019-04-20T15:04:45.337Z,25.40
2019-04-20T15:07:15.001Z,25.40
2019-04-20T15:09:44.667Z,25.20
2019-04-20T15:12:49.170Z,25.00
2019-04-20T15:15:10.551Z,25.10
2019-04-20T15:17:41.695Z,25.20
2019-04-20T15:20:17.308Z,25.40
2019-04-20T15:22:47.721Z,25.50
2019-04-20T15:25:17.712Z,25.60
2019-04-20T15:27:48.308Z,25.50
2019-04-20T15:30:18.337Z,25.60
2019-04-20T15:32:49.765Z,25.60
2019-04-20T15:35:25.049Z,25.30
2019-04-20T15:37:57.313Z,25.40
2019-04-20T15:40:29.345Z,25.50
2019-04-20T15:43:06.448Z,25.40
2019-04-20T15:45:29.422Z,25.30
2019-04-20T15:47:59.479Z,25.20
2019-04-20T15:50:29.694Z,24.90
2019-04-20T15:52:59.108Z,24.80
2019-04-20T15:55:32.948Z,24.90
2019-04-20T15:58:06.054Z,24.90
2019-04-20T16:00:34.151Z,25.00
2019-04-20T16:03:21.372Z,25.10
2019-04-20T16:05:53.276Z,25.00
2019-04-20T16:08:28.013Z,25.00
2019-04-20T16:10:57.305Z,25.00
2019-04-20T16:13:33.861Z,24.90
2019-04-20T16:15:58.106Z,24.90
2019-04-20T16:18:27.249Z,25.00
2019-04-20T16:21:06.237Z,25.00
2019-04-20T16:23:30.556Z,24.90
2019-04-20T16:26:01.762Z,24.90
2019-04-20T16:28:31.922Z,24.90
2019-04-20T16:31:01.457Z,24.90
2019-04-20T16:33:30.573Z,25.00
2019-04-20T16:36:00.656Z,25.20
2019-04-20T16:38:30.555Z,25.00
2019-04-20T16:41:00.042Z,24.80
2019-04-20T16:43:32.862Z,24.70
2019-04-20T16:45:59.309Z,24.60
2019-04-20T16:48:28.346Z,24.70
2019-04-20T16:50:57.048Z,24.50
2019-04-20T16:53:26.839Z,24.40
2019-04-20T16:55:56.822Z,24.30
2019-04-20T16:58:26.028Z,24.30
2019-04-20T17:00:55.913Z,24.30
2019-04-20T17:03:38.149Z,24.40
2019-04-20T17:05:55.940Z,24.50
2019-04-20T17:08:24.948Z,24.40
2019-04-20T17:10:53.947Z,24.30
2019-04-20T17:13:34.146Z,24.20
2019-04-20T17:15:53.031Z,24.10
2019-04-20T17:18:21.654Z,24.00
2019-04-20T17:20:50.644Z,23.90
2019-04-20T17:23:19.514Z,23.80
2019-04-20T17:25:55.361Z,23.70
2019-04-20T17:28:26.798Z,23.60
2019-04-20T17:31:07.186Z,23.50
2019-04-20T17:33:50.616Z,23.50
2019-04-20T17:36:15.001Z,23.30
2019-04-20T17:38:44.543Z,23.40
2019-04-20T17:41:38.834Z,23.30
2019-04-20T17:44:01.473Z,23.30
2019-04-20T17:46:27.265Z,23.10
2019-04-20T17:49:00.825Z,23.00
2019-04-20T17:51:34.391Z,23.10
2019-04-20T17:53:52.850Z,23.00
2019-04-20T17:56:17.425Z,22.90
2019-04-20T17:58:46.307Z,22.80
2019-04-20T18:01:26.614Z,22.70
2019-04-20T18:04:18.661Z,22.60
2019-04-20T18:06:41.529Z,22.50
2019-04-20T18:09:04.134Z,22.40
2019-04-20T18:11:25.289Z,22.30
2019-04-20T18:13:58.924Z,22.20
2019-04-20T18:16:46.549Z,22.00
2019-04-20T18:19:21.733Z,21.90
2019-04-20T18:21:47.686Z,21.70
2019-04-20T18:24:45.729Z,21.60
2019-04-20T18:27:18.777Z,21.50
2019-04-20T18:29:52.829Z,21.30
2019-04-20T18:32:23.357Z,21.20
2019-04-20T18:34:56.359Z,21.10
2019-04-20T18:37:26.589Z,20.80
2019-04-20T18:39:59.611Z,20.80
2019-04-20T18:42:31.333Z,20.60
2019-04-20T18:45:14.382Z,20.50
2019-04-20T18:47:45.241Z,20.40
2019-04-20T18:50:09.425Z,20.20
2019-04-20T18:52:29.520Z,20.10
2019-04-20T18:54:59.483Z,20.00
2019-04-20T18:57:30.786Z,19.90
2019-04-20T19:00:00.180Z,19.90
2019-04-20T19:02:33.422Z,19.70
2019-04-20T19:05:01.566Z,19.60
2019-04-20T19:07:34.894Z,19.60
2019-04-20T19:10:09.360Z,19.40
2019-04-20T19:12:42.483Z,19.30
2019-04-20T19:15:28.122Z,19.10
2019-04-20T19:17:50.004Z,18.90
2019-04-20T19:20:29.117Z,18.80
2019-04-20T19:22:58.073Z,18.70
2019-04-20T19:25:31.574Z,18.60
2019-04-20T19:27:59.274Z,18.40
2019-04-20T19:30:36.038Z,18.40
2019-04-20T19:33:14.932Z,18.30
2019-04-20T19:35:40.676Z,18.20
2019-04-20T19:38:09.625Z,18.30
2019-04-20T19:40:43.238Z,18.10
2019-04-20T19:43:15.668Z,18.10
2019-04-20T19:46:07.212Z,17.90
2019-04-20T19:48:21.959Z,17.80
2019-04-20T19:51:05.919Z,17.70
2019-04-20T19:53:36.541Z,17.60
2019-04-20T19:56:00.500Z,17.60
2019-04-20T19:58:28.070Z,17.70
2019-04-20T20:00:53.802Z,17.60
2019-04-20T20:03:21.991Z,17.60
2019-04-20T20:05:53.855Z,17.40
2019-04-20T20:08:26.253Z,17.40
2019-04-20T20:10:52.646Z,17.10
2019-04-20T20:13:27.655Z,17.10
2019-04-20T20:16:09.044Z,17.10
2019-04-20T20:18:47.690Z,16.80
2019-04-20T20:21:38.523Z,16.50
2019-04-20T20:23:58.179Z,16.20
2019-04-20T20:26:50.039Z,16.10
2019-04-20T20:29:28.402Z,16.00
2019-04-20T20:32:01.701Z,16.10
2019-04-20T20:34:30.963Z,16.10
2019-04-20T20:37:01.824Z,16.10
2019-04-20T20:39:30.961Z,16.20
2019-04-20T20:42:15.187Z,16.20
2019-04-20T20:44:42.858Z,16.30
2019-04-20T20:47:31.485Z,16.30
2019-04-20T20:50:08.581Z,16.40
2019-04-20T20:52:31.826Z,16.50
2019-04-20T20:55:04.675Z,16.50
2019-04-20T20:57:40.920Z,16.50
2019-04-20T21:00:12.141Z,16.40
2019-04-20T21:02:42.013Z,16.30
2019-04-20T21:05:05.870Z,16.30
2019-04-20T21:07:34.701Z,16.30
2019-04-20T21:10:06.168Z,16.40
2019-04-20T21:12:43.677Z,16.40
2019-04-20T21:15:13.359Z,16.20
2019-04-20T21:18:04.677Z,16.30
2019-04-20T21:20:20.322Z,16.30
2019-04-20T21:22:55.072Z,16.20
2019-04-20T21:25:12.971Z,16.30
2019-04-20T21:27:42.562Z,16.30
2019-04-20T21:30:18.453Z,16.30
2019-04-20T21:32:45.686Z,16.30
2019-04-20T21:35:15.516Z,16.30
2019-04-20T21:37:52.594Z,16.30
2019-04-20T21:40:25.144Z,16.20
2019-04-20T21:42:52.491Z,16.10
2019-04-20T21:45:24.840Z,16.40
2019-04-20T21:47:50.284Z,16.30
2019-04-20T21:50:36.232Z,16.10
2019-04-20T21:52:58.578Z,16.10
2019-04-20T21:55:30.058Z,16.10
2019-04-20T21:58:01.875Z,16.30
2019-04-20T22:01:06.140Z,16.30
2019-04-20T22:03:24.741Z,16.20
2019-04-20T22:06:02.580Z,16.10
2019-04-20T22:08:32.680Z,16.10
2019-04-20T22:11:03.848Z,16.00
2019-04-20T22:13:42.077Z,15.90
2019-04-20T22:16:12.237Z,15.90
2019-04-20T22:18:48.560Z,15.80
2019-04-20T22:21:21.344Z,15.80
2019-04-20T22:23:59.876Z,15.70
2019-04-20T22:26:26.237Z,15.60
2019-04-20T22:28:52.150Z,15.50
2019-04-20T22:31:29.794Z,15.60
2019-04-20T22:34:00.797Z,15.40
2019-04-20T22:36:35.499Z,15.40
2019-04-20T22:39:13.775Z,15.30
2019-04-20T22:41:59.067Z,15.30
2019-04-20T22:44:26.592Z,15.20
2019-04-20T22:46:54.351Z,15.00
2019-04-20T22:49:39.923Z,14.90
2019-04-20T22:52:05.900Z,15.00
2019-04-20T22:54:49.421Z,14.90
2019-04-20T22:57:12.855Z,14.80
2019-04-20T22:59:41.852Z,14.90
2019-04-20T23:02:06.537Z,15.00
2019-04-20T23:04:37.104Z,14.80
2019-04-20T23:07:06.299Z,14.70
2019-04-20T23:09:50.381Z,14.60
2019-04-20T23:12:17.816Z,14.50
2019-04-20T23:14:44.753Z,14.40
2019-04-20T23:17:18.446Z,14.40
2019-04-20T23:19:52.851Z,14.40
2019-04-20T23:22:23.070Z,14.40
2019-04-20T23:24:53.318Z,14.40
2019-04-20T23:27:31.253Z,14.30
2019-04-20T23:29:58.354Z,14.30
2019-04-20T23:32:30.058Z,14.20
2019-04-20T23:35:08.252Z,14.20
2019-04-20T23:37:38.530Z,14.10
2019-04-20T23:40:16.424Z,14.10
2019-04-20T23:42:58.020Z,13.90
2019-04-20T23:45:35.507Z,13.90
2019-04-20T23:48:04.322Z,13.80
2019-04-20T23:50:49.063Z,13.70
2019-04-20T23:53:19.868Z,13.50
2019-04-20T23:55:31.918Z,13.50
2019-04-20T23:58:04.998Z,13.40
